Time;durP1;ratioP1;P1;durP2;ratioP2;P2;SDS_P1;SDS_P2;PMS_P1;PMS_P2;Temp;Humidity;BMP_temperature;BMP_pressure;BME280_temperature;BME280_humidity;BME280_pressure;Samples;Min_cycle;Max_cycle;Signal;HPM_P1;HPM_P2
2021/03/19 00:01:21;;;;;;;79.45;45.75;;;;;;;-0.19;77.97;96398.05;1711048;82;21138;-85
2021/03/19 00:03:48;;;;;;;79.70;45.78;;;;;;;-0.13;78.05;96388.20;1711525;82;21923;-85
2021/03/19 00:06:14;;;;;;;76.12;44.58;;;;;;;-0.07;77.95;96389.47;1714245;82;21123;-84
2021/03/19 00:08:40;;;;;;;71.50;43.40;;;;;;;-0.02;77.96;96386.91;1652560;84;21158;-84
2021/03/19 00:11:07;;;;;;;74.40;47.83;;;;;;;0.03;77.92;96385.30;1675366;84;22179;-84
2021/03/19 00:13:33;;;;;;;77.03;45.88;;;;;;;0.06;77.89;96379.95;1673972;84;21150;-85
2021/03/19 00:15:59;;;;;;;76.53;46.13;;;;;;;0.01;77.77;96384.61;1675755;84;21118;-84
2021/03/19 00:18:25;;;;;;;75.05;44.48;;;;;;;-0.01;77.86;96383.42;1675895;84;21186;-84
2021/03/19 00:20:51;;;;;;;75.32;45.33;;;;;;;-0.03;77.93;96385.28;1674128;84;21134;-86
2021/03/19 00:23:17;;;;;;;71.57;43.75;;;;;;;-0.01;78.14;96380.05;1654246;84;21300;-86
2021/03/19 00:25:43;;;;;;;76.85;45.48;;;;;;;-0.03;77.98;96381.45;1674168;83;21448;-86
2021/03/19 00:28:15;;;;;;;72.25;43.33;;;;;;;-0.09;78.04;96380.64;1674846;84;21912;-86
2021/03/19 00:30:46;;;;;;;68.95;42.35;;;;;;;-0.13;78.05;96380.53;1671952;83;21111;-85
2021/03/19 00:33:12;;;;;;;67.22;42.20;;;;;;;-0.15;78.11;96377.29;1674810;84;21264;-86
2021/03/19 00:35:39;;;;;;;71.02;44.48;;;;;;;-0.16;78.14;96377.41;1673629;84;21284;-86
2021/03/19 00:38:07;;;;;;;71.80;44.90;;;;;;;-0.16;78.21;96373.11;1673789;83;21114;-86
2021/03/19 00:40:36;;;;;;;72.17;43.90;;;;;;;-0.17;78.25;96366.81;1672606;84;21103;-86
2021/03/19 00:43:05;;;;;;;66.65;42.70;;;;;;;-0.15;78.40;96365.80;1671971;84;21146;-86
2021/03/19 00:45:31;;;;;;;67.70;42.08;;;;;;;-0.10;78.49;96368.81;1682745;84;21383;-85
2021/03/19 00:47:57;;;;;;;65.35;42.55;;;;;;;-0.12;78.45;96364.28;1680663;84;21249;-84
2021/03/19 00:50:34;;;;;;;73.95;42.33;;;;;;;-0.15;78.29;96364.52;1666556;84;21123;-84
2021/03/19 00:53:00;;;;;;;71.95;43.17;;;;;;;-0.14;78.36;96363.59;1679882;84;21170;-84
2021/03/19 00:55:26;;;;;;;78.47;44.53;;;;;;;-0.20;78.25;96367.86;1665158;84;21161;-84
2021/03/19 00:57:52;;;;;;;71.02;44.08;;;;;;;-0.21;78.34;96361.59;1662973;85;21098;-84
2021/03/19 01:00:19;;;;;;;69.50;43.78;;;;;;;-0.19;78.40;96354.16;1663849;85;21177;-84
2021/03/19 01:02:45;;;;;;;76.80;45.33;;;;;;;-0.14;78.43;96346.18;1661528;84;21291;-84
2021/03/19 01:05:19;;;;;;;75.70;45.15;;;;;;;-0.11;78.45;96348.03;1682390;83;21296;-84
2021/03/19 01:07:45;;;;;;;76.95;45.92;;;;;;;-0.07;78.56;96351.97;1728304;80;21156;-84
2021/03/19 01:10:14;;;;;;;76.67;42.53;;;;;;;-0.06;78.50;96346.39;1730071;80;21154;-84
2021/03/19 01:12:42;;;;;;;70.30;42.60;;;;;;;-0.06;78.37;96349.76;1730137;80;21479;-84
2021/03/19 01:15:09;;;;;;;68.75;41.58;;;;;;;-0.12;78.24;96337.94;1730263;80;21142;-84
2021/03/19 01:17:35;;;;;;;73.65;43.20;;;;;;;-0.10;78.35;96347.56;1726081;80;21152;-85
2021/03/19 01:20:01;;;;;;;67.05;41.53;;;;;;;-0.09;78.53;96344.89;1724712;80;22299;-85
2021/03/19 01:22:28;;;;;;;69.97;41.25;;;;;;;-0.06;78.47;96342.56;1727642;80;21141;-86
2021/03/19 01:24:54;;;;;;;77.03;43.95;;;;;;;-0.03;78.58;96346.97;1724198;80;21121;-87
2021/03/19 01:27:20;;;;;;;67.47;40.23;;;;;;;-0.08;78.39;96338.04;1727294;80;21142;-87
2021/03/19 01:29:46;;;;;;;72.58;42.15;;;;;;;-0.11;78.25;96340.83;1724504;80;21173;-86
2021/03/19 01:32:13;;;;;;;75.10;42.58;;;;;;;-0.14;78.35;96341.87;1722338;80;21251;-87
2021/03/19 01:34:38;;;;;;;68.47;41.23;;;;;;;-0.19;78.38;96350.80;1719412;81;21139;-86
2021/03/19 01:37:04;;;;;;;74.15;44.10;;;;;;;-0.25;78.44;96344.43;1715321;81;21296;-87
2021/03/19 01:39:30;;;;;;;75.37;45.75;;;;;;;-0.32;78.35;96344.09;1718335;81;21131;-87
2021/03/19 01:42:02;;;;;;;74.65;44.05;;;;;;;-0.42;78.42;96344.88;1718695;81;21135;-86
2021/03/19 01:44:57;;;;;;;75.17;44.27;;;;;;;-0.49;78.92;96346.25;1712086;81;21126;-86
2021/03/19 01:48:19;;;;;;;65.25;37.58;;;;;;;-0.49;78.92;96346.25;1719000;81;21118;-86
2021/03/19 01:51:42;;;;;;;32.50;20.92;;;;;;;-0.57;78.76;96349.39;1719659;81;21353;-86
2021/03/19 01:55:04;;;;;;;26.75;17.27;;;;;;;-0.64;78.57;96350.32;1718662;81;21141;-86
2021/03/19 01:58:26;;;;;;;27.30;17.25;;;;;;;-0.60;78.59;96353.45;1718301;81;21134;-86
2021/03/19 02:01:49;;;;;;;29.63;18.82;;;;;;;-0.56;78.46;96347.65;1721890;81;22140;-87
2021/03/19 02:05:11;;;;;;;28.73;17.92;;;;;;;-0.53;78.42;96344.40;1718842;81;21261;-86
2021/03/19 02:08:33;;;;;;;28.87;19.60;;;;;;;-0.59;77.98;96349.16;1718708;81;21139;-86
2021/03/19 02:11:55;;;;;;;28.10;20.65;;;;;;;-0.75;78.25;96343.91;1723701;81;21150;-86
2021/03/19 02:15:18;;;;;;;29.70;19.73;;;;;;;-0.70;78.47;96343.09;1722248;81;21567;-86
2021/03/19 02:18:40;;;;;;;29.02;19.70;;;;;;;-0.67;78.13;96345.42;1719734;81;21098;-86
2021/03/19 02:22:02;;;;;;;26.82;18.75;;;;;;;-0.68;77.99;96347.63;1715603;81;21154;-86
2021/03/19 02:25:24;;;;;;;34.53;21.60;;;;;;;-0.74;77.68;96344.26;1719883;81;21114;-86
2021/03/19 02:28:36;;;;;;;31.53;21.57;;;;;;;-0.76;77.74;96344.84;1719932;81;21388;-86
2021/03/19 02:31:13;;;;;;;27.80;20.88;;;;;;;-0.75;77.73;96346.47;1693371;81;21475;-86
2021/03/19 02:33:58;;;;;;;28.77;19.60;;;;;;;-0.76;77.55;96347.86;1730639;80;21454;-86
2021/03/19 02:36:27;;;;;;;30.35;20.57;;;;;;;-0.77;77.40;96353.88;1731878;80;21341;-86
2021/03/19 02:38:52;;;;;;;31.27;21.20;;;;;;;-0.78;77.37;96352.27;1729815;80;21144;-86
2021/03/19 02:41:19;;;;;;;26.60;19.30;;;;;;;-0.80;77.41;96348.55;1730982;80;21318;-86
2021/03/19 02:43:46;;;;;;;27.30;19.35;;;;;;;-0.87;77.18;96344.80;1733207;80;21142;-86
2021/03/19 02:46:12;;;;;;;31.85;20.48;;;;;;;-0.99;77.01;96351.60;1730426;80;21363;-86
2021/03/19 02:48:38;;;;;;;27.60;18.87;;;;;;;-1.08;77.03;96351.47;1728021;80;21118;-86
2021/03/19 02:51:05;;;;;;;30.85;19.85;;;;;;;-1.12;77.28;96349.61;1730455;80;21122;-86
2021/03/19 02:53:31;;;;;;;33.70;21.48;;;;;;;-1.06;77.43;96346.61;1729594;80;21114;-87
2021/03/19 02:56:00;;;;;;;31.62;21.48;;;;;;;-0.99;77.39;96356.70;1731143;80;21462;-86
2021/03/19 02:58:26;;;;;;;28.27;20.95;;;;;;;-0.94;77.42;96349.55;1731215;80;21114;-86
2021/03/19 03:00:52;;;;;;;30.77;21.07;;;;;;;-0.88;77.37;96353.38;1729181;80;21815;-87
2021/03/19 03:03:18;;;;;;;28.60;19.62;;;;;;;-0.88;77.25;96357.20;1727024;80;21990;-86
2021/03/19 03:05:44;;;;;;;27.87;19.37;;;;;;;-0.94;77.00;96346.19;1733636;80;21126;-86
2021/03/19 03:08:12;;;;;;;30.65;21.02;;;;;;;-0.95;76.90;96354.30;1730107;80;21137;-86
2021/03/19 03:10:39;;;;;;;29.77;21.17;;;;;;;-0.98;76.77;96351.98;1687219;80;21146;-87
2021/03/19 03:13:06;;;;;;;33.33;23.50;;;;;;;-1.01;76.79;96362.38;1732490;80;21165;-86
2021/03/19 03:15:32;;;;;;;30.10;20.48;;;;;;;-1.09;76.70;96349.39;1733360;80;21126;-86
2021/03/19 03:17:59;;;;;;;27.85;19.20;;;;;;;-1.10;76.65;96355.41;1732823;80;21121;-86
2021/03/19 03:20:33;;;;;;;28.17;18.30;;;;;;;-1.12;76.58;96357.73;1730338;80;21142;-87
2021/03/19 03:23:00;;;;;;;25.05;17.50;;;;;;;-1.16;76.58;96355.02;1732002;80;21171;-86
2021/03/19 03:25:26;;;;;;;24.27;16.07;;;;;;;-1.17;76.77;96353.40;1731429;80;22075;-86
2021/03/19 03:27:52;;;;;;;26.85;18.00;;;;;;;-1.13;76.81;96353.09;1731019;80;21285;-85
2021/03/19 03:30:27;;;;;;;32.08;22.25;;;;;;;-1.14;76.69;96355.29;1733320;80;21126;-85
2021/03/19 03:32:53;;;;;;;38.28;24.12;;;;;;;-1.13;76.93;96357.37;1727456;80;21157;-85
2021/03/19 03:35:20;;;;;;;42.13;28.47;;;;;;;-1.10;77.11;96360.52;1722650;81;21103;-84
2021/03/19 03:37:46;;;;;;;39.95;25.90;;;;;;;-1.11;77.03;96361.91;1724312;80;21112;-85
2021/03/19 03:40:17;;;;;;;38.83;24.35;;;;;;;-1.12;77.08;96369.20;1721509;81;21115;-85
2021/03/19 03:42:43;;;;;;;36.60;25.57;;;;;;;-1.13;77.22;96368.85;1722556;81;21111;-85
2021/03/19 03:45:10;;;;;;;29.37;20.85;;;;;;;-1.10;77.26;96360.97;1721433;81;21321;-85
2021/03/19 03:47:36;;;;;;;27.17;19.23;;;;;;;-1.09;77.11;96363.88;1718189;81;21460;-85
2021/03/19 03:50:11;;;;;;;24.37;17.87;;;;;;;-1.13;76.76;96368.85;1721413;81;21285;-84
2021/03/19 03:52:37;;;;;;;27.15;17.65;;;;;;;-1.17;76.65;96364.87;1724022;81;21091;-85
2021/03/19 03:55:05;;;;;;;27.82;19.05;;;;;;;-1.29;76.54;96348.27;1724659;81;21103;-85
2021/03/19 03:57:30;;;;;;;31.70;21.45;;;;;;;-1.22;76.55;96359.65;1721518;81;21122;-85
2021/03/19 03:59:56;;;;;;;30.23;19.67;;;;;;;-1.21;76.78;96353.62;1703151;81;21362;-85
2021/03/19 04:02:26;;;;;;;30.17;20.75;;;;;;;-1.21;76.66;96354.90;1721659;80;21437;-85
2021/03/19 04:04:52;;;;;;;30.77;20.60;;;;;;;-1.22;76.67;96349.45;1723164;81;21248;-85
2021/03/19 04:07:18;;;;;;;28.75;19.57;;;;;;;-1.21;76.64;96351.08;1721427;80;21133;-85
2021/03/19 04:09:44;;;;;;;27.93;19.45;;;;;;;-1.22;76.35;96353.73;1720994;81;21443;-85
2021/03/19 04:12:11;;;;;;;27.22;18.60;;;;;;;-1.26;76.34;96352.34;1722990;81;21440;-85
2021/03/19 04:14:38;;;;;;;29.70;19.55;;;;;;;-1.28;76.13;96348.63;1723672;80;21114;-85
2021/03/19 04:17:07;;;;;;;25.35;17.87;;;;;;;-1.36;75.89;96345.80;1721062;81;21385;-85
2021/03/19 04:19:34;;;;;;;52.60;30.70;;;;;;;-1.41;75.85;96340.22;1719479;81;21195;-85
2021/03/19 04:22:00;;;;;;;27.98;19.20;;;;;;;-1.51;75.99;96336.69;1719099;81;21150;-85
2021/03/19 04:24:26;;;;;;;25.32;17.25;;;;;;;-1.61;75.43;96325.53;1720519;81;21110;-85
2021/03/19 04:26:52;;;;;;;31.05;20.20;;;;;;;-1.61;75.43;96325.53;1721871;81;21134;-85
2021/03/19 04:29:18;;;;;;;28.65;20.12;;;;;;;-1.67;75.28;96328.03;1719254;81;21114;-84
2021/03/19 04:31:44;;;;;;;33.40;21.55;;;;;;;-1.74;75.15;96320.95;1721479;81;21130;-85
2021/03/19 04:34:10;;;;;;;33.35;20.75;;;;;;;-1.80;75.11;96327.27;1739461;80;21074;-85
2021/03/19 04:36:48;;;;;;;28.55;18.20;;;;;;;-1.87;75.01;96329.44;1740532;80;21112;-84
2021/03/19 04:39:20;;;;;;;16.48;13.20;;;;;;;-1.91;74.99;96326.76;1742069;80;21275;-85
2021/03/19 04:41:50;;;;;;;16.27;12.30;;;;;;;-1.96;74.88;96324.16;1743780;80;21138;-85
2021/03/19 04:44:17;;;;;;;16.23;13.38;;;;;;;-2.00;74.98;96324.83;1738734;80;21129;-85
2021/03/19 04:46:43;;;;;;;18.27;13.72;;;;;;;-2.03;74.99;96325.05;1709159;80;21157;-85
2021/03/19 04:49:09;;;;;;;16.45;13.20;;;;;;;-2.06;74.92;96327.00;1743441;80;21497;-85
2021/03/19 04:51:35;;;;;;;16.23;11.70;;;;;;;-2.06;74.95;96329.09;1741469;80;21166;-85
2021/03/19 04:54:01;;;;;;;16.95;12.23;;;;;;;-2.08;74.86;96338.56;1742989;80;21113;-84
2021/03/19 04:56:27;;;;;;;13.53;10.50;;;;;;;-2.12;74.82;96329.06;1741579;80;21263;-85
2021/03/19 04:58:54;;;;;;;11.18;8.63;;;;;;;-2.14;74.83;96335.15;1740967;80;21344;-84
2021/03/19 05:01:20;;;;;;;9.43;8.43;;;;;;;-2.16;74.65;96336.98;1741106;80;21383;-85
2021/03/19 05:03:47;;;;;;;11.12;9.03;;;;;;;-2.19;74.64;96335.93;1742417;80;21372;-85
2021/03/19 05:06:13;;;;;;;8.63;7.75;;;;;;;-2.21;74.68;96334.77;1740125;80;21141;-84
2021/03/19 05:08:41;;;;;;;7.62;6.70;;;;;;;-2.16;74.61;96337.80;1741405;80;21090;-85
2021/03/19 05:11:07;;;;;;;9.73;7.62;;;;;;;-2.13;74.50;96342.67;1744772;80;21153;-85
2021/03/19 05:13:33;;;;;;;9.95;7.85;;;;;;;-2.12;74.50;96347.31;1747106;80;21153;-84
2021/03/19 05:15:59;;;;;;;10.25;8.10;;;;;;;-2.14;74.52;96352.97;1744509;80;21383;-85
2021/03/19 05:18:25;;;;;;;11.22;8.78;;;;;;;-2.15;74.52;96350.87;1744127;80;21153;-84
2021/03/19 05:20:51;;;;;;;9.20;8.10;;;;;;;-2.16;74.54;96352.27;1741114;80;21232;-84
2021/03/19 05:23:25;;;;;;;9.48;8.48;;;;;;;-2.16;74.60;96354.34;1744201;80;21137;-85
2021/03/19 05:25:51;;;;;;;11.33;8.63;;;;;;;-2.10;74.67;96359.50;1744575;80;21137;-85
2021/03/19 05:28:18;;;;;;;11.90;9.48;;;;;;;-2.04;74.79;96360.34;1741588;80;21118;-85
2021/03/19 05:30:44;;;;;;;12.05;10.00;;;;;;;-1.94;74.97;96366.45;1741288;80;21149;-85
2021/03/19 05:33:10;;;;;;;17.10;13.05;;;;;;;-1.86;75.03;96367.98;1744681;80;21146;-85
2021/03/19 05:35:36;;;;;;;27.20;17.57;;;;;;;-1.75;75.21;96365.98;1737584;80;21162;-85
2021/03/19 05:38:03;;;;;;;30.80;22.42;;;;;;;-1.71;75.22;96367.39;1738576;80;21138;-84
2021/03/19 05:40:40;;;;;;;31.60;20.08;;;;;;;-1.63;75.30;96367.69;1737721;80;21371;-85
2021/03/19 05:43:26;;;;;;;40.92;28.02;;;;;;;-1.51;75.37;96374.91;1708448;80;21137;-85
2021/03/19 05:46:04;;;;;;;38.92;26.40;;;;;;;-1.41;75.40;96372.08;1737099;80;21148;-85
2021/03/19 05:48:41;;;;;;;43.42;28.67;;;;;;;-1.35;75.32;96368.27;1736400;80;21150;-85
2021/03/19 05:51:30;;;;;;;42.58;27.95;;;;;;;-1.29;75.30;96372.95;1736293;80;21121;-85
2021/03/19 05:54:00;;;;;;;53.40;33.25;;;;;;;-1.20;75.46;96374.83;1735462;80;21122;-85
2021/03/19 05:56:29;;;;;;;59.33;36.45;;;;;;;-1.12;75.36;96379.40;1691276;84;21245;-85
2021/03/19 05:58:55;;;;;;;69.50;42.93;;;;;;;-1.11;75.43;96381.84;1694753;84;21268;-85
2021/03/19 06:01:21;;;;;;;71.87;42.20;;;;;;;-1.03;75.67;96392.28;1737258;80;21090;-84
2021/03/19 06:03:47;;;;;;;74.35;43.78;;;;;;;-0.93;75.81;96391.17;1734743;80;21161;-85
2021/03/19 06:06:13;;;;;;;72.30;43.85;;;;;;;-0.91;75.67;96395.23;1735194;80;21385;-85
2021/03/19 06:08:43;;;;;;;72.32;44.83;;;;;;;-0.87;75.79;96393.73;1734962;80;21458;-85
2021/03/19 06:11:24;;;;;;;78.20;47.33;;;;;;;-0.84;75.87;96393.05;1729697;80;21162;-85
2021/03/19 06:13:56;;;;;;;62.97;37.40;;;;;;;-0.77;75.87;96395.98;1730205;80;21137;-85
2021/03/19 06:16:40;;;;;;;74.40;47.15;;;;;;;-0.67;75.99;96396.45;1730821;80;21358;-87
2021/03/19 06:19:29;;;;;;;79.03;45.73;;;;;;;-0.63;75.59;96400.44;1729213;82;21372;-86
2021/03/19 06:22:08;;;;;;;61.73;37.13;;;;;;;-0.61;75.67;96403.68;1728063;82;21158;-86
2021/03/19 06:24:34;;;;;;;82.75;46.73;;;;;;;-0.59;75.57;96406.58;1729206;80;21137;-87
2021/03/19 06:27:31;;;;;;;82.45;48.42;;;;;;;-0.71;75.31;96403.98;1712277;82;21145;-87
2021/03/19 06:30:00;;;;;;;86.05;49.25;;;;;;;-0.72;75.60;96406.19;1731634;82;21177;-87
2021/03/19 06:32:31;;;;;;;70.20;41.20;;;;;;;-0.70;75.58;96407.36;1727239;81;21149;-87
2021/03/19 06:35:14;;;;;;;87.05;49.03;;;;;;;-0.69;75.64;96407.70;1717363;82;21131;-87
2021/03/19 06:37:47;;;;;;;85.53;46.53;;;;;;;-0.67;75.69;96412.23;1718859;82;21154;-87
2021/03/19 06:40:33;;;;;;;81.47;50.12;;;;;;;-0.63;75.82;96408.09;1716336;81;21345;-87
2021/03/19 06:43:19;;;;;;;83.80;48.13;;;;;;;-0.54;75.82;96412.16;1716909;82;21341;-87
2021/03/19 06:45:49;;;;;;;82.70;48.42;;;;;;;-0.48;75.69;96415.55;1700088;82;21165;-87
2021/03/19 06:48:32;;;;;;;94.52;53.02;;;;;;;-0.38;76.03;96406.27;1713201;82;21147;-87
2021/03/19 06:50:58;;;;;;;98.90;55.40;;;;;;;-0.30;75.56;96410.36;1712647;81;21166;-87
2021/03/19 06:53:29;;;;;;;94.13;53.90;;;;;;;-0.32;75.67;96415.58;1713680;82;21252;-87
2021/03/19 06:55:58;;;;;;;129.53;71.75;;;;;;;-0.40;75.28;96410.67;1716977;82;21095;-86
2021/03/19 06:58:40;;;;;;;135.55;77.35;;;;;;;-0.41;75.64;96420.54;1710167;82;21142;-87
2021/03/19 07:01:14;;;;;;;82.40;42.80;;;;;;;-0.46;75.76;96417.52;1719289;82;21143;-87
2021/03/19 07:04:26;;;;;;;95.22;52.58;;;;;;;-0.43;75.93;96416.02;1816313;77;22913;-86
2021/03/19 07:07:26;;;;;;;94.25;52.80;;;;;;;-0.46;76.04;96420.08;1808643;78;21677;-84
2021/03/19 07:10:26;;;;;;;108.60;64.40;;;;;;;-0.45;76.00;96424.25;1811883;78;21101;-84
2021/03/19 07:13:50;;;;;;;104.45;55.03;;;;;;;-0.39;76.11;96427.16;1816779;78;21129;-84
2021/03/19 07:16:24;;;;;;;;;;;;;;;-0.28;76.10;96431.95;1815718;78;21487;-84
2021/03/19 07:19:11;;;;;;;96.90;49.18;;;;;;;-0.23;75.96;96430.66;1744159;78;20123;-85
2021/03/19 07:22:03;;;;;;;99.95;54.42;;;;;;;-0.24;75.60;96431.59;1814246;78;21431;-84
2021/03/19 07:24:47;;;;;;;104.67;52.78;;;;;;;-0.25;75.59;96430.44;1821247;78;21636;-85
2021/03/19 07:27:36;;;;;;;96.12;52.67;;;;;;;-0.19;75.43;96432.05;1803185;78;21118;-85
2021/03/19 07:30:26;;;;;;;97.25;56.35;;;;;;;-0.12;75.32;96434.98;1804648;78;21161;-84
2021/03/19 07:33:28;;;;;;;98.07;52.62;;;;;;;-0.03;75.83;96436.83;1814986;78;21109;-85
2021/03/19 07:36:18;;;;;;;105.75;56.00;;;;;;;0.10;75.80;96438.01;1819882;78;21110;-84
2021/03/19 07:39:13;;;;;;;78.37;41.65;;;;;;;0.17;75.64;96445.58;1822888;78;21223;-84
2021/03/19 07:42:10;;;;;;;96.60;54.33;;;;;;;0.14;74.84;96443.23;1815614;78;21145;-84
2021/03/19 07:44:44;;;;;;;92.82;51.63;;;;;;;0.01;75.06;96445.92;1804489;78;21124;-84
2021/03/19 07:47:42;;;;;;;93.67;50.70;;;;;;;0.08;75.00;96436.84;1811564;77;23028;-83
2021/03/19 07:50:38;;;;;;;101.50;53.95;;;;;;;0.19;75.40;96439.88;1813690;78;21082;-84
2021/03/19 07:53:31;;;;;;;94.45;52.25;;;;;;;0.36;75.46;96436.85;1821155;78;21128;-84
2021/03/19 07:56:31;;;;;;;89.65;50.23;;;;;;;0.41;75.03;96434.75;1813075;78;21096;-84
2021/03/19 07:59:03;;;;;;;80.67;49.13;;;;;;;0.43;74.60;96434.63;1779229;80;21125;-84
2021/03/19 08:01:40;;;;;;;88.85;48.85;;;;;;;0.47;74.18;96435.55;1766898;81;21339;-84
2021/03/19 08:04:18;;;;;;;85.03;49.65;;;;;;;0.46;74.23;96436.48;1767231;81;21075;-84
2021/03/19 08:06:52;;;;;;;82.22;46.28;;;;;;;0.51;74.25;96435.67;1757562;81;21307;-84
2021/03/19 08:09:27;;;;;;;76.77;44.08;;;;;;;0.59;74.12;96437.62;1745362;81;21498;-84
2021/03/19 08:11:57;;;;;;;72.47;42.85;;;;;;;0.63;73.31;96440.28;1760130;81;21248;-84
2021/03/19 08:15:05;;;;;;;81.65;46.60;;;;;;;0.58;72.86;96444.95;1757046;81;21161;-84
2021/03/19 08:18:00;;;;;;;64.07;36.30;;;;;;;0.52;72.60;96439.05;1754543;81;21348;-83
2021/03/19 08:20:34;;;;;;;42.05;26.05;;;;;;;0.44;72.15;96447.29;1760633;81;21156;-84
2021/03/19 08:23:32;;;;;;;64.07;37.58;;;;;;;0.26;71.65;96443.12;1758568;81;21216;-87
2021/03/19 08:25:58;;;;;;;68.97;38.28;;;;;;;0.22;71.75;96444.29;1755210;81;21236;-85
2021/03/19 08:28:48;;;;;;;69.70;40.67;;;;;;;0.35;72.23;96440.80;1761083;81;21244;-85
2021/03/19 08:31:42;;;;;;;82.00;49.03;;;;;;;0.50;72.60;96439.16;1760088;81;21143;-85
2021/03/19 08:34:46;;;;;;;88.12;56.42;;;;;;;0.71;72.56;96429.48;1756307;81;21247;-85
2021/03/19 08:37:39;;;;;;;78.75;46.58;;;;;;;0.84;73.13;96427.59;1757381;81;21230;-85
2021/03/19 08:40:11;;;;;;;74.20;44.08;;;;;;;1.03;72.72;96425.67;1761176;81;21149;-85
2021/03/19 08:42:41;;;;;;;64.72;42.03;;;;;;;1.27;72.84;96430.56;1756742;80;21102;-85
2021/03/19 08:45:10;;;;;;;63.38;38.92;;;;;;;1.46;72.30;96427.70;1757395;81;21110;-86
2021/03/19 08:47:44;;;;;;;66.80;39.40;;;;;;;1.56;71.53;96425.66;1728867;81;21126;-85
2021/03/19 08:50:18;;;;;;;70.00;42.95;;;;;;;1.69;71.46;96427.09;1729342;81;21127;-85
2021/03/19 08:53:12;;;;;;;68.97;42.35;;;;;;;1.83;71.92;96429.81;1729766;81;21252;-85
2021/03/19 08:55:39;;;;;;;68.90;43.25;;;;;;;1.70;70.92;96424.06;1726781;83;21099;-85
2021/03/19 08:58:33;;;;;;;57.13;35.45;;;;;;;1.30;70.67;96423.91;1728290;81;21142;-85
2021/03/19 09:01:07;;;;;;;62.53;38.60;;;;;;;1.02;70.37;96433.81;1755352;82;21149;-85
2021/03/19 09:03:50;;;;;;;60.12;35.25;;;;;;;0.85;70.86;96433.05;1739338;81;21341;-85
2021/03/19 09:06:20;;;;;;;64.67;37.08;;;;;;;0.67;71.21;96408.45;1739766;81;21126;-85
2021/03/19 09:09:01;;;;;;;68.62;40.80;;;;;;;0.90;71.53;96435.59;1755662;82;21129;-85
2021/03/19 09:11:42;;;;;;;60.05;34.95;;;;;;;0.99;71.40;96424.30;1736201;82;21126;-86
2021/03/19 09:14:13;;;;;;;51.80;31.37;;;;;;;1.01;70.65;96428.82;1755282;82;21128;-85
2021/03/19 09:16:45;;;;;;;57.38;36.53;;;;;;;1.07;70.62;96426.58;1737420;81;21140;-84
2021/03/19 09:19:43;;;;;;;50.95;31.97;;;;;;;1.12;70.73;96425.73;1739034;82;21074;-85
2021/03/19 09:22:26;;;;;;;51.35;30.50;;;;;;;1.18;70.50;96430.84;1754651;82;21348;-85
2021/03/19 09:25:15;;;;;;;44.03;29.18;;;;;;;1.26;70.71;96432.31;1754089;81;21126;-85
2021/03/19 09:27:48;;;;;;;58.52;34.08;;;;;;;1.38;70.80;96426.21;1754341;82;21133;-85
2021/03/19 09:30:25;;;;;;;44.83;27.13;;;;;;;1.49;70.67;96427.45;1753309;82;21348;-84
2021/03/19 09:32:56;;;;;;;39.20;25.50;;;;;;;1.53;70.15;96428.00;1755648;82;21154;-85
2021/03/19 09:35:44;;;;;;;31.93;19.20;;;;;;;1.54;69.81;96424.50;1729604;82;21114;-85
2021/03/19 09:38:30;;;;;;;37.98;23.25;;;;;;;1.51;68.11;96420.92;1756615;82;21150;-85
2021/03/19 09:41:03;;;;;;;37.83;24.63;;;;;;;1.41;68.94;96424.68;1753879;82;21341;-85
2021/03/19 09:43:49;;;;;;;32.90;22.40;;;;;;;1.52;68.80;96430.69;1753232;81;21275;-85
2021/03/19 09:46:29;;;;;;;43.00;27.42;;;;;;;1.61;68.07;96426.89;1749017;80;21240;-85
2021/03/19 09:49:02;;;;;;;40.45;27.70;;;;;;;1.54;68.10;96429.62;1748530;80;21146;-85
2021/03/19 09:51:47;;;;;;;37.58;23.47;;;;;;;1.43;68.50;96430.48;1750342;80;21236;-85
2021/03/19 09:54:20;;;;;;;47.88;29.37;;;;;;;1.32;67.67;96429.75;1749333;80;21094;-86
2021/03/19 09:56:47;;;;;;;51.18;29.72;;;;;;;1.08;67.98;96431.22;1719077;80;21145;-86
2021/03/19 09:59:25;;;;;;;41.33;24.70;;;;;;;1.02;69.26;96436.84;1777936;80;21125;-86
2021/03/19 10:01:51;;;;;;;40.75;23.80;;;;;;;0.97;68.87;96438.45;1749272;81;21138;-86
2021/03/19 10:04:38;;;;;;;39.48;24.27;;;;;;;0.98;68.99;96432.91;1744485;81;21098;-87
2021/03/19 10:07:15;;;;;;;42.40;24.07;;;;;;;1.06;69.48;96432.63;1750171;80;21086;-86
2021/03/19 10:09:47;;;;;;;45.70;30.08;;;;;;;1.15;69.48;96438.30;1805785;78;21107;-86
2021/03/19 10:12:23;;;;;;;34.07;20.27;;;;;;;1.25;69.71;96436.28;1807735;78;21137;-86
2021/03/19 10:14:52;;;;;;;40.48;26.00;;;;;;;1.27;69.13;96439.52;1749295;80;21074;-86
2021/03/19 10:17:28;;;;;;;46.02;26.48;;;;;;;1.34;68.87;96434.27;1805418;78;21263;-86
2021/03/19 10:20:16;;;;;;;43.35;26.60;;;;;;;1.41;68.81;96436.20;1808216;78;21125;-86
2021/03/19 10:22:46;;;;;;;45.23;27.10;;;;;;;1.50;68.86;96439.31;1810902;79;21118;-86
2021/03/19 10:25:29;;;;;;;40.15;25.25;;;;;;;1.63;68.30;96439.61;1805691;79;21216;-86
2021/03/19 10:28:00;;;;;;;41.23;24.98;;;;;;;1.66;67.67;96440.16;1805908;78;21074;-86
2021/03/19 10:30:35;;;;;;;26.55;17.15;;;;;;;1.66;67.50;96437.59;1806978;79;21431;-86
2021/03/19 10:33:24;;;;;;;23.65;16.35;;;;;;;1.58;66.39;96443.80;1805236;78;21333;-86
2021/03/19 10:36:02;;;;;;;30.30;20.15;;;;;;;1.44;65.44;96449.22;1810636;79;21130;-86
2021/03/19 10:38:48;;;;;;;25.00;17.17;;;;;;;1.25;66.22;96442.20;1810555;78;21237;-86
2021/03/19 10:41:43;;;;;;;25.40;18.45;;;;;;;1.29;66.93;96447.89;1805126;79;21431;-86
2021/03/19 10:44:23;;;;;;;34.38;22.07;;;;;;;1.34;66.69;96451.72;1772270;80;21102;-86
2021/03/19 10:47:00;;;;;;;41.20;25.30;;;;;;;1.31;67.68;96445.58;1773465;80;21078;-86
2021/03/19 10:49:57;;;;;;;40.80;28.27;;;;;;;1.12;68.67;96453.07;1754408;81;21387;-87
2021/03/19 10:52:42;;;;;;;36.68;22.82;;;;;;;1.02;69.85;96454.28;1777907;80;21217;-86
2021/03/19 10:58:39;;;;;;;28.38;18.25;;;;;;;1.01;70.69;96449.29;1822282;77;22997;-87
2021/03/19 11:01:39;;;;;;;26.62;17.98;;;;;;;0.87;70.38;96451.64;1821926;78;21093;-86
2021/03/19 11:04:34;;;;;;;25.25;17.10;;;;;;;0.72;70.21;96452.84;1821279;78;21301;-86
2021/03/19 11:07:28;;;;;;;22.42;15.90;;;;;;;0.72;71.14;96457.95;1822565;78;21159;-86
2021/03/19 11:10:12;;;;;;;22.05;15.32;;;;;;;0.80;71.28;96453.05;1820996;78;21251;-86
2021/03/19 11:12:47;;;;;;;20.10;14.33;;;;;;;0.78;70.81;96442.93;1820345;78;21244;-86
2021/03/19 11:15:24;;;;;;;20.43;13.85;;;;;;;0.84;70.90;96437.82;1820055;78;21097;-86
2021/03/19 11:18:36;;;;;;;16.80;13.22;;;;;;;0.99;70.56;96432.78;1821272;78;21144;-86
2021/03/19 11:21:08;;;;;;;45.65;26.07;;;;;;;1.27;69.77;96433.94;1822314;78;21144;-86
2021/03/19 11:23:46;;;;;;;22.75;16.15;;;;;;;1.60;69.70;96431.67;1817337;78;21070;-86
2021/03/19 11:26:27;;;;;;;19.25;13.45;;;;;;;1.85;68.13;96435.62;1821540;78;21156;-86
2021/03/19 11:29:19;;;;;;;25.77;18.80;;;;;;;2.09;67.04;96427.63;1820633;78;21129;-86
2021/03/19 11:32:14;;;;;;;23.70;15.70;;;;;;;2.25;67.85;96425.41;1821967;78;21076;-86
2021/03/19 11:34:46;;;;;;;19.00;12.47;;;;;;;2.50;67.05;96416.94;1822790;78;21674;-87
2021/03/19 11:37:24;;;;;;;;;;;;;;;2.59;63.21;96425.92;1825685;78;21109;-86
2021/03/19 11:39:59;;;;;;;14.30;10.15;;;;;;;2.65;64.88;96420.28;1819007;78;20129;-86
2021/03/19 11:42:33;;;;;;;19.12;12.58;;;;;;;2.73;61.95;96420.08;1821718;78;21496;-86
2021/03/19 11:45:07;;;;;;;22.40;15.35;;;;;;;2.79;61.57;96423.42;1815002;78;21825;-86
2021/03/19 11:47:46;;;;;;;17.00;11.33;;;;;;;2.95;65.16;96432.70;1820093;78;21109;-87
2021/03/19 11:50:27;;;;;;;32.25;20.08;;;;;;;2.69;65.13;96437.03;1759244;78;21054;-85
2021/03/19 11:55:50;;;;;;;30.05;20.25;;;;;;;1.70;68.24;96449.68;1812965;76;23004;-85
2021/03/19 11:58:18;;;;;;;30.27;22.05;;;;;;;1.47;68.79;96452.84;1812075;78;21235;-85
2021/03/19 12:00:44;;;;;;;28.55;20.37;;;;;;;1.38;69.40;96450.53;1817586;78;21121;-88
2021/03/19 12:03:21;;;;;;;30.12;20.68;;;;;;;1.33;69.77;96453.12;1790939;78;21109;-88
2021/03/19 12:05:47;;;;;;;31.60;20.92;;;;;;;1.27;69.86;96449.76;1758711;80;21340;-89
2021/03/19 12:08:13;;;;;;;27.32;17.40;;;;;;;1.28;69.88;96456.50;1760182;81;21320;-88
2021/03/19 12:10:39;;;;;;;31.77;21.60;;;;;;;1.32;69.47;96448.48;1759343;81;21124;-89
2021/03/19 12:13:09;;;;;;;33.65;19.67;;;;;;;1.37;69.91;96447.63;1753108;81;21141;-87